sensor_id;sensor_type;location;lat;lon;timestamp;P1;durP1;ratioP1;P2;durP2;ratioP2
17854;SDS011;9053;53.358;6.382;2022-09-23T00:00:22;10.30;;;9.30;;
17854;SDS011;9053;53.358;6.382;2022-09-23T00:02:52;9.60;;;8.70;;
17854;SDS011;9053;53.358;6.382;2022-09-23T00:05:22;9.60;;;8.77;;
17854;SDS011;9053;53.358;6.382;2022-09-23T00:07:51;9.27;;;8.38;;
17854;SDS011;9053;53.358;6.382;2022-09-23T00:10:25;10.15;;;9.15;;
17854;SDS011;9053;53.358;6.382;2022-09-23T00:12:56;10.02;;;9.13;;
17854;SDS011;9053;53.358;6.382;2022-09-23T00:15:27;9.20;;;8.43;;
17854;SDS011;9053;53.358;6.382;2022-09-23T00:17:57;9.55;;;8.75;;
17854;SDS011;9053;53.358;6.382;2022-09-23T00:20:27;9.80;;;8.90;;
17854;SDS011;9053;53.358;6.382;2022-09-23T00:22:57;9.82;;;8.82;;
17854;SDS011;9053;53.358;6.382;2022-09-23T00:25:29;10.45;;;9.55;;
17854;SDS011;9053;53.358;6.382;2022-09-23T00:27:59;10.45;;;9.45;;
17854;SDS011;9053;53.358;6.382;2022-09-23T00:30:29;10.20;;;9.30;;
17854;SDS011;9053;53.358;6.382;2022-09-23T00:32:59;9.85;;;8.95;;
17854;SDS011;9053;53.358;6.382;2022-09-23T00:35:29;10.85;;;9.75;;
17854;SDS011;9053;53.358;6.382;2022-09-23T00:37:59;11.43;;;10.30;;
17854;SDS011;9053;53.358;6.382;2022-09-23T00:40:31;10.82;;;9.82;;
17854;SDS011;9053;53.358;6.382;2022-09-23T00:43:01;10.93;;;9.93;;
17854;SDS011;9053;53.358;6.382;2022-09-23T00:45:31;11.40;;;10.23;;
17854;SDS011;9053;53.358;6.382;2022-09-23T00:48:02;11.57;;;10.48;;
17854;SDS011;9053;53.358;6.382;2022-09-23T00:50:32;11.45;;;10.32;;
17854;SDS011;9053;53.358;6.382;2022-09-23T00:53:05;11.38;;;10.35;;
17854;SDS011;9053;53.358;6.382;2022-09-23T00:55:43;10.68;;;9.60;;
17854;SDS011;9053;53.358;6.382;2022-09-23T00:58:17;11.32;;;10.23;;
17854;SDS011;9053;53.358;6.382;2022-09-23T01:00:50;11.60;;;10.52;;
17854;SDS011;9053;53.358;6.382;2022-09-23T01:03:20;11.70;;;10.52;;
17854;SDS011;9053;53.358;6.382;2022-09-23T01:05:50;10.60;;;9.57;;
17854;SDS011;9053;53.358;6.382;2022-09-23T01:08:20;11.63;;;10.55;;
17854;SDS011;9053;53.358;6.382;2022-09-23T01:10:57;12.38;;;11.13;;
17854;SDS011;9053;53.358;6.382;2022-09-23T01:13:35;12.23;;;11.02;;
17854;SDS011;9053;53.358;6.382;2022-09-23T01:16:13;13.10;;;11.32;;
17854;SDS011;9053;53.358;6.382;2022-09-23T01:18:47;12.43;;;11.23;;
17854;SDS011;9053;53.358;6.382;2022-09-23T01:21:30;12.25;;;11.05;;
17854;SDS011;9053;53.358;6.382;2022-09-23T01:24:14;12.90;;;11.60;;
17854;SDS011;9053;53.358;6.382;2022-09-23T01:27:01;12.05;;;10.95;;
17854;SDS011;9053;53.358;6.382;2022-09-23T01:32:45;12.40;;;11.20;;
17854;SDS011;9053;53.358;6.382;2022-09-23T01:35:25;12.77;;;11.55;;
17854;SDS011;9053;53.358;6.382;2022-09-23T01:38:03;12.70;;;11.40;;
17854;SDS011;9053;53.358;6.382;2022-09-23T01:40:45;12.65;;;11.32;;
17854;SDS011;9053;53.358;6.382;2022-09-23T01:43:20;12.50;;;11.18;;
17854;SDS011;9053;53.358;6.382;2022-09-23T01:45:53;12.90;;;11.60;;
17854;SDS011;9053;53.358;6.382;2022-09-23T01:48:31;13.52;;;12.23;;
17854;SDS011;9053;53.358;6.382;2022-09-23T01:51:05;12.85;;;11.50;;
17854;SDS011;9053;53.358;6.382;2022-09-23T01:53:41;12.95;;;11.65;;
17854;SDS011;9053;53.358;6.382;2022-09-23T01:56:16;12.00;;;10.80;;
17854;SDS011;9053;53.358;6.382;2022-09-23T01:58:51;12.82;;;11.30;;
17854;SDS011;9053;53.358;6.382;2022-09-23T02:01:31;12.07;;;10.88;;
17854;SDS011;9053;53.358;6.382;2022-09-23T02:04:09;12.25;;;11.05;;
17854;SDS011;9053;53.358;6.382;2022-09-23T02:06:45;11.93;;;10.80;;
17854;SDS011;9053;53.358;6.382;2022-09-23T02:09:21;12.32;;;11.15;;
17854;SDS011;9053;53.358;6.382;2022-09-23T02:11:57;12.90;;;11.30;;
17854;SDS011;9053;53.358;6.382;2022-09-23T02:14:32;13.10;;;11.60;;
17854;SDS011;9053;53.358;6.382;2022-09-23T02:17:09;12.52;;;11.32;;
17854;SDS011;9053;53.358;6.382;2022-09-23T02:19:45;14.02;;;12.63;;
17854;SDS011;9053;53.358;6.382;2022-09-23T02:22:18;12.35;;;11.15;;
17854;SDS011;9053;53.358;6.382;2022-09-23T02:24:53;12.05;;;10.85;;
17854;SDS011;9053;53.358;6.382;2022-09-23T02:27:25;13.70;;;12.30;;
17854;SDS011;9053;53.358;6.382;2022-09-23T02:30:00;13.23;;;11.90;;
17854;SDS011;9053;53.358;6.382;2022-09-23T02:32:38;12.95;;;11.68;;
17854;SDS011;9053;53.358;6.382;2022-09-23T02:35:20;12.85;;;11.45;;
17854;SDS011;9053;53.358;6.382;2022-09-23T02:38:00;12.52;;;11.27;;
17854;SDS011;9053;53.358;6.382;2022-09-23T02:40:45;14.27;;;11.52;;
17854;SDS011;9053;53.358;6.382;2022-09-23T02:43:22;13.60;;;12.20;;
17854;SDS011;9053;53.358;6.382;2022-09-23T02:45:59;12.55;;;11.35;;
17854;SDS011;9053;53.358;6.382;2022-09-23T02:48:30;12.63;;;10.95;;
17854;SDS011;9053;53.358;6.382;2022-09-23T02:51:06;12.60;;;11.30;;
17854;SDS011;9053;53.358;6.382;2022-09-23T02:53:36;13.00;;;11.68;;
17854;SDS011;9053;53.358;6.382;2022-09-23T02:56:11;13.40;;;12.00;;
17854;SDS011;9053;53.358;6.382;2022-09-23T02:58:45;12.30;;;10.85;;
17854;SDS011;9053;53.358;6.382;2022-09-23T03:01:17;13.80;;;11.43;;
17854;SDS011;9053;53.358;6.382;2022-09-23T03:04:01;13.65;;;11.32;;
17854;SDS011;9053;53.358;6.382;2022-09-23T03:06:42;13.65;;;11.30;;
17854;SDS011;9053;53.358;6.382;2022-09-23T03:09:21;12.40;;;11.10;;
17854;SDS011;9053;53.358;6.382;2022-09-23T03:12:00;12.65;;;11.35;;
17854;SDS011;9053;53.358;6.382;2022-09-23T03:14:42;13.15;;;11.75;;
17854;SDS011;9053;53.358;6.382;2022-09-23T03:17:22;11.77;;;10.57;;
17854;SDS011;9053;53.358;6.382;2022-09-23T03:20:00;12.02;;;10.82;;
17854;SDS011;9053;53.358;6.382;2022-09-23T03:22:39;13.23;;;11.75;;
17854;SDS011;9053;53.358;6.382;2022-09-23T03:25:14;12.02;;;10.82;;
17854;SDS011;9053;53.358;6.382;2022-09-23T03:27:46;13.77;;;12.23;;
17854;SDS011;9053;53.358;6.382;2022-09-23T03:30:16;12.43;;;10.95;;
17854;SDS011;9053;53.358;6.382;2022-09-23T03:32:47;12.20;;;10.90;;
17854;SDS011;9053;53.358;6.382;2022-09-23T03:35:18;12.90;;;11.00;;
17854;SDS011;9053;53.358;6.382;2022-09-23T03:37:55;11.73;;;10.50;;
17854;SDS011;9053;53.358;6.382;2022-09-23T03:40:33;12.50;;;10.55;;
17854;SDS011;9053;53.358;6.382;2022-09-23T03:43:09;14.05;;;11.77;;
17854;SDS011;9053;53.358;6.382;2022-09-23T03:45:39;12.27;;;10.82;;
17854;SDS011;9053;53.358;6.382;2022-09-23T03:48:10;11.55;;;10.35;;
17854;SDS011;9053;53.358;6.382;2022-09-23T03:50:40;12.52;;;11.02;;
17854;SDS011;9053;53.358;6.382;2022-09-23T03:53:12;12.38;;;10.90;;
17854;SDS011;9053;53.358;6.382;2022-09-23T03:55:44;11.68;;;10.50;;
17854;SDS011;9053;53.358;6.382;2022-09-23T03:58:14;12.35;;;10.85;;
17854;SDS011;9053;53.358;6.382;2022-09-23T04:00:44;12.50;;;10.88;;
17854;SDS011;9053;53.358;6.382;2022-09-23T04:03:15;12.23;;;11.02;;
17854;SDS011;9053;53.358;6.382;2022-09-23T04:05:45;13.35;;;10.95;;
17854;SDS011;9053;53.358;6.382;2022-09-23T04:08:18;11.75;;;10.55;;
17854;SDS011;9053;53.358;6.382;2022-09-23T04:10:47;12.55;;;11.25;;
17854;SDS011;9053;53.358;6.382;2022-09-23T04:13:20;12.60;;;11.20;;
17854;SDS011;9053;53.358;6.382;2022-09-23T04:15:50;13.10;;;11.55;;
17854;SDS011;9053;53.358;6.382;2022-09-23T04:18:19;13.00;;;11.60;;
17854;SDS011;9053;53.358;6.382;2022-09-23T04:20:49;12.23;;;10.93;;
17854;SDS011;9053;53.358;6.382;2022-09-23T04:23:22;12.63;;;11.32;;
17854;SDS011;9053;53.358;6.382;2022-09-23T04:25:52;11.82;;;10.32;;
17854;SDS011;9053;53.358;6.382;2022-09-23T04:28:22;13.57;;;11.65;;
17854;SDS011;9053;53.358;6.382;2022-09-23T04:30:52;13.50;;;10.88;;
17854;SDS011;9053;53.358;6.382;2022-09-23T04:33:23;12.32;;;11.00;;
17854;SDS011;9053;53.358;6.382;2022-09-23T04:35:54;11.88;;;10.68;;
17854;SDS011;9053;53.358;6.382;2022-09-23T04:38:27;11.88;;;10.68;;
17854;SDS011;9053;53.358;6.382;2022-09-23T04:40:56;12.15;;;10.90;;
17854;SDS011;9053;53.358;6.382;2022-09-23T04:43:26;13.68;;;11.65;;
17854;SDS011;9053;53.358;6.382;2022-09-23T04:45:56;13.57;;;12.18;;
17854;SDS011;9053;53.358;6.382;2022-09-23T04:48:27;12.20;;;11.00;;
17854;SDS011;9053;53.358;6.382;2022-09-23T04:51:00;13.45;;;11.45;;
17854;SDS011;9053;53.358;6.382;2022-09-23T04:53:34;12.82;;;11.43;;
17854;SDS011;9053;53.358;6.382;2022-09-23T04:56:06;13.15;;;11.55;;
17854;SDS011;9053;53.358;6.382;2022-09-23T04:58:37;13.27;;;11.88;;
17854;SDS011;9053;53.358;6.382;2022-09-23T05:01:09;13.15;;;11.02;;
17854;SDS011;9053;53.358;6.382;2022-09-23T05:03:41;13.38;;;11.98;;
17854;SDS011;9053;53.358;6.382;2022-09-23T05:06:12;14.10;;;11.75;;
17854;SDS011;9053;53.358;6.382;2022-09-23T05:08:48;14.67;;;12.07;;
17854;SDS011;9053;53.358;6.382;2022-09-23T05:11:19;12.32;;;11.13;;
17854;SDS011;9053;53.358;6.382;2022-09-23T05:13:50;14.15;;;11.07;;
17854;SDS011;9053;53.358;6.382;2022-09-23T05:16:21;12.57;;;11.23;;
17854;SDS011;9053;53.358;6.382;2022-09-23T05:18:52;13.43;;;12.00;;
17854;SDS011;9053;53.358;6.382;2022-09-23T05:21:23;14.27;;;12.32;;
17854;SDS011;9053;53.358;6.382;2022-09-23T05:23:57;13.03;;;11.40;;
17854;SDS011;9053;53.358;6.382;2022-09-23T05:26:27;13.02;;;11.73;;
17854;SDS011;9053;53.358;6.382;2022-09-23T05:28:58;13.77;;;11.73;;
17854;SDS011;9053;53.358;6.382;2022-09-23T05:31:28;13.10;;;11.80;;
17854;SDS011;9053;53.358;6.382;2022-09-23T05:34:01;13.70;;;12.25;;
17854;SDS011;9053;53.358;6.382;2022-09-23T05:36:33;13.25;;;11.68;;
17854;SDS011;9053;53.358;6.382;2022-09-23T05:39:07;13.00;;;11.70;;
17854;SDS011;9053;53.358;6.382;2022-09-23T05:41:37;13.32;;;11.93;;
17854;SDS011;9053;53.358;6.382;2022-09-23T05:44:08;14.00;;;12.25;;
17854;SDS011;9053;53.358;6.382;2022-09-23T05:46:38;14.80;;;12.20;;
17854;SDS011;9053;53.358;6.382;2022-09-23T05:49:08;13.00;;;11.70;;
17854;SDS011;9053;53.358;6.382;2022-09-23T05:51:38;13.07;;;11.68;;
17854;SDS011;9053;53.358;6.382;2022-09-23T05:54:10;13.52;;;12.13;;
17854;SDS011;9053;53.358;6.382;2022-09-23T05:56:40;13.20;;;11.90;;
17854;SDS011;9053;53.358;6.382;2022-09-23T05:59:10;13.02;;;11.80;;
17854;SDS011;9053;53.358;6.382;2022-09-23T06:01:40;12.65;;;11.38;;
17854;SDS011;9053;53.358;6.382;2022-09-23T06:04:10;13.00;;;11.60;;
17854;SDS011;9053;53.358;6.382;2022-09-23T06:06:41;12.23;;;11.02;;
17854;SDS011;9053;53.358;6.382;2022-09-23T06:09:14;13.13;;;11.73;;
17854;SDS011;9053;53.358;6.382;2022-09-23T06:11:44;13.55;;;12.05;;
17854;SDS011;9053;53.358;6.382;2022-09-23T06:14:13;12.13;;;10.93;;
17854;SDS011;9053;53.358;6.382;2022-09-23T06:16:44;13.88;;;12.10;;
17854;SDS011;9053;53.358;6.382;2022-09-23T06:19:13;12.60;;;11.30;;
17854;SDS011;9053;53.358;6.382;2022-09-23T06:21:43;13.35;;;11.95;;
17854;SDS011;9053;53.358;6.382;2022-09-23T06:24:16;14.05;;;12.75;;
17854;SDS011;9053;53.358;6.382;2022-09-23T06:26:51;13.35;;;11.48;;
17854;SDS011;9053;53.358;6.382;2022-09-23T06:29:21;13.25;;;11.93;;
17854;SDS011;9053;53.358;6.382;2022-09-23T06:31:51;12.70;;;11.40;;
17854;SDS011;9053;53.358;6.382;2022-09-23T06:34:21;13.00;;;11.35;;
17854;SDS011;9053;53.358;6.382;2022-09-23T06:36:51;12.88;;;11.57;;
17854;SDS011;9053;53.358;6.382;2022-09-23T06:39:23;13.90;;;11.85;;
17854;SDS011;9053;53.358;6.382;2022-09-23T06:41:53;12.70;;;11.50;;
17854;SDS011;9053;53.358;6.382;2022-09-23T06:44:23;12.60;;;11.38;;
17854;SDS011;9053;53.358;6.382;2022-09-23T06:46:53;11.95;;;10.75;;
17854;SDS011;9053;53.358;6.382;2022-09-23T06:49:26;12.55;;;11.35;;
17854;SDS011;9053;53.358;6.382;2022-09-23T06:51:59;13.02;;;11.82;;
17854;SDS011;9053;53.358;6.382;2022-09-23T06:54:33;13.93;;;12.50;;
17854;SDS011;9053;53.358;6.382;2022-09-23T06:57:03;12.93;;;11.75;;
17854;SDS011;9053;53.358;6.382;2022-09-23T06:59:33;13.45;;;12.10;;
17854;SDS011;9053;53.358;6.382;2022-09-23T07:02:03;13.35;;;11.80;;
17854;SDS011;9053;53.358;6.382;2022-09-23T07:04:33;13.90;;;12.60;;
17854;SDS011;9053;53.358;6.382;2022-09-23T07:07:03;13.32;;;12.02;;
17854;SDS011;9053;53.358;6.382;2022-09-23T07:09:39;13.30;;;11.90;;
17854;SDS011;9053;53.358;6.382;2022-09-23T07:12:09;13.13;;;11.55;;
17854;SDS011;9053;53.358;6.382;2022-09-23T07:14:39;13.05;;;11.75;;
17854;SDS011;9053;53.358;6.382;2022-09-23T07:17:09;13.13;;;11.82;;
17854;SDS011;9053;53.358;6.382;2022-09-23T07:19:39;13.50;;;12.20;;
17854;SDS011;9053;53.358;6.382;2022-09-23T07:22:09;14.20;;;12.80;;
17854;SDS011;9053;53.358;6.382;2022-09-23T07:24:41;12.70;;;11.25;;
17854;SDS011;9053;53.358;6.382;2022-09-23T07:27:12;13.20;;;11.80;;
17854;SDS011;9053;53.358;6.382;2022-09-23T07:29:45;13.40;;;12.00;;
17854;SDS011;9053;53.358;6.382;2022-09-23T07:32:15;12.80;;;11.55;;
17854;SDS011;9053;53.358;6.382;2022-09-23T07:34:45;11.65;;;10.48;;
17854;SDS011;9053;53.358;6.382;2022-09-23T07:37:16;12.38;;;11.13;;
17854;SDS011;9053;53.358;6.382;2022-09-23T07:39:49;11.40;;;10.27;;
17854;SDS011;9053;53.358;6.382;2022-09-23T07:42:19;11.73;;;10.63;;
17854;SDS011;9053;53.358;6.382;2022-09-23T07:44:49;12.35;;;11.05;;
17854;SDS011;9053;53.358;6.382;2022-09-23T07:47:21;12.70;;;11.43;;
17854;SDS011;9053;53.358;6.382;2022-09-23T07:49:50;11.20;;;10.10;;
17854;SDS011;9053;53.358;6.382;2022-09-23T07:52:20;12.02;;;10.80;;
17854;SDS011;9053;53.358;6.382;2022-09-23T07:54:53;11.52;;;10.32;;
17854;SDS011;9053;53.358;6.382;2022-09-23T07:57:23;12.02;;;10.82;;
17854;SDS011;9053;53.358;6.382;2022-09-23T07:59:53;11.35;;;10.15;;
17854;SDS011;9053;53.358;6.382;2022-09-23T08:02:22;13.02;;;11.80;;
17854;SDS011;9053;53.358;6.382;2022-09-23T08:04:52;11.00;;;10.00;;
17854;SDS011;9053;53.358;6.382;2022-09-23T08:07:23;11.57;;;10.38;;
17854;SDS011;9053;53.358;6.382;2022-09-23T08:09:55;11.05;;;10.05;;
17854;SDS011;9053;53.358;6.382;2022-09-23T08:12:25;12.50;;;10.68;;
17854;SDS011;9053;53.358;6.382;2022-09-23T08:14:56;12.65;;;11.05;;
17854;SDS011;9053;53.358;6.382;2022-09-23T08:17:26;12.82;;;11.38;;
17854;SDS011;9053;53.358;6.382;2022-09-23T08:19:56;12.95;;;11.75;;
17854;SDS011;9053;53.358;6.382;2022-09-23T08:22:26;10.60;;;9.60;;
17854;SDS011;9053;53.358;6.382;2022-09-23T08:24:58;11.45;;;9.93;;
17854;SDS011;9053;53.358;6.382;2022-09-23T08:27:28;10.65;;;9.65;;
17854;SDS011;9053;53.358;6.382;2022-09-23T08:29:58;9.70;;;8.68;;
17854;SDS011;9053;53.358;6.382;2022-09-23T08:32:28;8.85;;;8.05;;
17854;SDS011;9053;53.358;6.382;2022-09-23T08:34:58;10.80;;;9.70;;
17854;SDS011;9053;53.358;6.382;2022-09-23T08:37:28;11.80;;;10.25;;
17854;SDS011;9053;53.358;6.382;2022-09-23T08:40:00;11.13;;;10.02;;
17854;SDS011;9053;53.358;6.382;2022-09-23T08:42:30;12.57;;;11.27;;
17854;SDS011;9053;53.358;6.382;2022-09-23T08:45:04;11.75;;;10.70;;
17854;SDS011;9053;53.358;6.382;2022-09-23T08:47:42;9.77;;;8.77;;
17854;SDS011;9053;53.358;6.382;2022-09-23T08:50:16;11.90;;;10.52;;
17854;SDS011;9053;53.358;6.382;2022-09-23T08:52:49;9.77;;;8.88;;
17854;SDS011;9053;53.358;6.382;2022-09-23T08:55:27;11.85;;;10.65;;
17854;SDS011;9053;53.358;6.382;2022-09-23T08:58:17;12.73;;;11.43;;
17854;SDS011;9053;53.358;6.382;2022-09-23T09:00:57;9.80;;;8.77;;
17854;SDS011;9053;53.358;6.382;2022-09-23T09:03:33;11.35;;;9.43;;
17854;SDS011;9053;53.358;6.382;2022-09-23T09:06:09;9.70;;;8.70;;
17854;SDS011;9053;53.358;6.382;2022-09-23T09:08:45;10.38;;;9.38;;
17854;SDS011;9053;53.358;6.382;2022-09-23T09:11:25;9.25;;;8.32;;
17854;SDS011;9053;53.358;6.382;2022-09-23T09:14:03;11.60;;;10.45;;
17854;SDS011;9053;53.358;6.382;2022-09-23T09:16:50;9.75;;;8.75;;
17854;SDS011;9053;53.358;6.382;2022-09-23T09:22:21;10.90;;;9.57;;
17854;SDS011;9053;53.358;6.382;2022-09-23T09:25:09;9.18;;;8.10;;
17854;SDS011;9053;53.358;6.382;2022-09-23T09:27:49;7.97;;;7.20;;
17854;SDS011;9053;53.358;6.382;2022-09-23T09:30:20;8.70;;;7.47;;
17854;SDS011;9053;53.358;6.382;2022-09-23T09:32:53;8.68;;;7.38;;
17854;SDS011;9053;53.358;6.382;2022-09-23T09:35:28;8.77;;;7.93;;
17854;SDS011;9053;53.358;6.382;2022-09-23T09:38:04;10.43;;;9.30;;
17854;SDS011;9053;53.358;6.382;2022-09-23T09:40:35;8.05;;;7.32;;
17854;SDS011;9053;53.358;6.382;2022-09-23T09:43:17;9.93;;;8.88;;
17854;SDS011;9053;53.358;6.382;2022-09-23T09:45:51;8.15;;;7.35;;
17854;SDS011;9053;53.358;6.382;2022-09-23T09:48:33;7.43;;;6.65;;
17854;SDS011;9053;53.358;6.382;2022-09-23T09:51:15;9.73;;;8.73;;
17854;SDS011;9053;53.358;6.382;2022-09-23T09:53:47;12.20;;;9.98;;
17854;SDS011;9053;53.358;6.382;2022-09-23T09:56:18;8.48;;;7.57;;
17854;SDS011;9053;53.358;6.382;2022-09-23T09:58:57;8.88;;;7.78;;
17854;SDS011;9053;53.358;6.382;2022-09-23T10:01:30;7.65;;;6.90;;
17854;SDS011;9053;53.358;6.382;2022-09-23T10:04:02;8.82;;;7.47;;
17854;SDS011;9053;53.358;6.382;2022-09-23T10:06:34;9.10;;;8.10;;
17854;SDS011;9053;53.358;6.382;2022-09-23T10:09:11;8.00;;;6.97;;
17854;SDS011;9053;53.358;6.382;2022-09-23T10:14:43;9.50;;;8.07;;
17854;SDS011;9053;53.358;6.382;2022-09-23T10:17:17;8.65;;;7.75;;
17854;SDS011;9053;53.358;6.382;2022-09-23T10:19:52;9.45;;;8.50;;
17854;SDS011;9053;53.358;6.382;2022-09-23T10:22:27;9.48;;;8.48;;
17854;SDS011;9053;53.358;6.382;2022-09-23T10:25:05;10.30;;;9.02;;
17854;SDS011;9053;53.358;6.382;2022-09-23T10:27:38;8.95;;;7.97;;
17854;SDS011;9053;53.358;6.382;2022-09-23T10:30:18;10.73;;;8.43;;
17854;SDS011;9053;53.358;6.382;2022-09-23T10:32:50;11.25;;;7.85;;
17854;SDS011;9053;53.358;6.382;2022-09-23T10:35:22;10.77;;;8.73;;
17854;SDS011;9053;53.358;6.382;2022-09-23T10:37:54;10.73;;;9.30;;
17854;SDS011;9053;53.358;6.382;2022-09-23T10:40:26;9.98;;;8.98;;
17854;SDS011;9053;53.358;6.382;2022-09-23T10:43:18;10.68;;;9.57;;
17854;SDS011;9053;53.358;6.382;2022-09-23T10:46:07;10.15;;;8.80;;
17854;SDS011;9053;53.358;6.382;2022-09-23T10:49:03;11.40;;;10.23;;
17854;SDS011;9053;53.358;6.382;2022-09-23T10:51:52;13.95;;;9.40;;
17854;SDS011;9053;53.358;6.382;2022-09-23T10:54:38;11.35;;;10.15;;
17854;SDS011;9053;53.358;6.382;2022-09-23T10:57:24;9.10;;;8.20;;
17854;SDS011;9053;53.358;6.382;2022-09-23T11:00:10;8.63;;;7.80;;
17854;SDS011;9053;53.358;6.382;2022-09-23T11:02:56;10.43;;;9.35;;
17854;SDS011;9053;53.358;6.382;2022-09-23T11:05:40;10.23;;;8.52;;
17854;SDS011;9053;53.358;6.382;2022-09-23T11:08:23;11.27;;;9.13;;
17854;SDS011;9053;53.358;6.382;2022-09-23T11:11:08;12.35;;;11.05;;
17854;SDS011;9053;53.358;6.382;2022-09-23T11:16:46;11.13;;;9.52;;
17854;SDS011;9053;53.358;6.382;2022-09-23T11:19:41;9.80;;;8.90;;
17854;SDS011;9053;53.358;6.382;2022-09-23T11:22:47;9.18;;;8.27;;
17854;SDS011;9053;53.358;6.382;2022-09-23T11:25:32;11.10;;;10.00;;
17854;SDS011;9053;53.358;6.382;2022-09-23T11:31:13;9.55;;;8.60;;
17854;SDS011;9053;53.358;6.382;2022-09-23T11:33:55;9.32;;;8.40;;
17854;SDS011;9053;53.358;6.382;2022-09-23T11:36:45;11.25;;;9.90;;
17854;SDS011;9053;53.358;6.382;2022-09-23T11:39:21;11.30;;;10.07;;
17854;SDS011;9053;53.358;6.382;2022-09-23T11:41:55;11.18;;;9.98;;
17854;SDS011;9053;53.358;6.382;2022-09-23T11:44:30;11.13;;;9.88;;
17854;SDS011;9053;53.358;6.382;2022-09-23T11:47:05;16.05;;;12.15;;
17854;SDS011;9053;53.358;6.382;2022-09-23T11:49:40;10.40;;;9.10;;
17854;SDS011;9053;53.358;6.382;2022-09-23T11:52:19;9.13;;;7.78;;
17854;SDS011;9053;53.358;6.382;2022-09-23T11:54:54;9.32;;;8.40;;
17854;SDS011;9053;53.358;6.382;2022-09-23T11:57:40;10.90;;;9.80;;
17854;SDS011;9053;53.358;6.382;2022-09-23T12:00:16;10.95;;;9.93;;
17854;SDS011;9053;53.358;6.382;2022-09-23T12:02:51;10.90;;;9.27;;
17854;SDS011;9053;53.358;6.382;2022-09-23T12:05:32;11.93;;;10.15;;
17854;SDS011;9053;53.358;6.382;2022-09-23T12:08:09;11.65;;;10.30;;
17854;SDS011;9053;53.358;6.382;2022-09-23T12:10:47;11.45;;;10.25;;
17854;SDS011;9053;53.358;6.382;2022-09-23T12:13:24;11.00;;;9.77;;
17854;SDS011;9053;53.358;6.382;2022-09-23T12:16:08;11.18;;;10.07;;
17854;SDS011;9053;53.358;6.382;2022-09-23T12:19:04;10.25;;;9.20;;
17854;SDS011;9053;53.358;6.382;2022-09-23T12:21:53;12.23;;;10.60;;
17854;SDS011;9053;53.358;6.382;2022-09-23T12:24:41;11.35;;;10.15;;
17854;SDS011;9053;53.358;6.382;2022-09-23T12:27:16;11.90;;;10.63;;
17854;SDS011;9053;53.358;6.382;2022-09-23T12:29:54;10.68;;;9.60;;
17854;SDS011;9053;53.358;6.382;2022-09-23T12:32:26;14.55;;;13.05;;
17854;SDS011;9053;53.358;6.382;2022-09-23T12:34:56;12.30;;;10.23;;
17854;SDS011;9053;53.358;6.382;2022-09-23T12:37:30;15.90;;;12.35;;
17854;SDS011;9053;53.358;6.382;2022-09-23T12:40:07;10.48;;;9.32;;
17854;SDS011;9053;53.358;6.382;2022-09-23T12:42:47;11.45;;;10.23;;
17854;SDS011;9053;53.358;6.382;2022-09-23T12:45:31;12.35;;;11.05;;
17854;SDS011;9053;53.358;6.382;2022-09-23T12:51:12;10.43;;;9.32;;
17854;SDS011;9053;53.358;6.382;2022-09-23T12:56:59;13.73;;;11.18;;
17854;SDS011;9053;53.358;6.382;2022-09-23T12:59:31;13.23;;;11.07;;
17854;SDS011;9053;53.358;6.382;2022-09-23T13:02:26;11.10;;;9.93;;
17854;SDS011;9053;53.358;6.382;2022-09-23T13:05:03;10.30;;;9.27;;
17854;SDS011;9053;53.358;6.382;2022-09-23T13:08:02;10.77;;;9.65;;
17854;SDS011;9053;53.358;6.382;2022-09-23T13:10:40;11.23;;;10.02;;
17854;SDS011;9053;53.358;6.382;2022-09-23T13:13:18;10.52;;;9.52;;
17854;SDS011;9053;53.358;6.382;2022-09-23T13:15:51;12.68;;;11.38;;
17854;SDS011;9053;53.358;6.382;2022-09-23T13:24:41;11.38;;;10.27;;
17854;SDS011;9053;53.358;6.382;2022-09-23T13:27:20;12.70;;;10.27;;
17854;SDS011;9053;53.358;6.382;2022-09-23T13:29:56;10.95;;;9.75;;
17854;SDS011;9053;53.358;6.382;2022-09-23T13:32:30;11.60;;;10.40;;
17854;SDS011;9053;53.358;6.382;2022-09-23T13:35:02;10.45;;;9.30;;
17854;SDS011;9053;53.358;6.382;2022-09-23T13:37:40;11.35;;;10.15;;
17854;SDS011;9053;53.358;6.382;2022-09-23T13:40:18;11.60;;;10.45;;
17854;SDS011;9053;53.358;6.382;2022-09-23T13:42:53;12.18;;;10.93;;
17854;SDS011;9053;53.358;6.382;2022-09-23T13:45:29;13.85;;;12.27;;
17854;SDS011;9053;53.358;6.382;2022-09-23T13:48:00;12.38;;;10.52;;
17854;SDS011;9053;53.358;6.382;2022-09-23T13:50:33;11.63;;;10.45;;
17854;SDS011;9053;53.358;6.382;2022-09-23T13:53:07;13.48;;;11.43;;
17854;SDS011;9053;53.358;6.382;2022-09-23T13:55:39;13.55;;;12.18;;
17854;SDS011;9053;53.358;6.382;2022-09-23T13:58:15;15.60;;;13.93;;
17854;SDS011;9053;53.358;6.382;2022-09-23T14:00:51;13.27;;;11.88;;
17854;SDS011;9053;53.358;6.382;2022-09-23T14:03:25;14.30;;;12.80;;
17854;SDS011;9053;53.358;6.382;2022-09-23T14:06:04;13.02;;;11.70;;
17854;SDS011;9053;53.358;6.382;2022-09-23T14:08:37;14.25;;;12.75;;
17854;SDS011;9053;53.358;6.382;2022-09-23T14:11:12;15.00;;;13.10;;
17854;SDS011;9053;53.358;6.382;2022-09-23T14:13:43;16.23;;;14.55;;
17854;SDS011;9053;53.358;6.382;2022-09-23T14:16:18;14.90;;;13.40;;
17854;SDS011;9053;53.358;6.382;2022-09-23T14:18:50;18.25;;;15.95;;
17854;SDS011;9053;53.358;6.382;2022-09-23T14:21:28;13.60;;;12.20;;
17854;SDS011;9053;53.358;6.382;2022-09-23T14:24:07;15.52;;;13.02;;
17854;SDS011;9053;53.358;6.382;2022-09-23T14:26:42;14.30;;;11.88;;
17854;SDS011;9053;53.358;6.382;2022-09-23T14:29:15;13.48;;;11.98;;
17854;SDS011;9053;53.358;6.382;2022-09-23T14:31:51;18.40;;;15.02;;
17854;SDS011;9053;53.358;6.382;2022-09-23T14:34:39;17.02;;;15.13;;
17854;SDS011;9053;53.358;6.382;2022-09-23T14:37:23;12.93;;;11.55;;
17854;SDS011;9053;53.358;6.382;2022-09-23T14:40:11;13.73;;;12.32;;
17854;SDS011;9053;53.358;6.382;2022-09-23T14:42:44;16.45;;;14.75;;
17854;SDS011;9053;53.358;6.382;2022-09-23T14:45:18;16.00;;;14.05;;
17854;SDS011;9053;53.358;6.382;2022-09-23T14:47:55;19.25;;;17.05;;
17854;SDS011;9053;53.358;6.382;2022-09-23T14:50:27;15.07;;;13.60;;
17854;SDS011;9053;53.358;6.382;2022-09-23T14:56:12;16.33;;;14.40;;
17854;SDS011;9053;53.358;6.382;2022-09-23T14:58:45;16.38;;;14.77;;
17854;SDS011;9053;53.358;6.382;2022-09-23T15:01:25;17.15;;;14.95;;
17854;SDS011;9053;53.358;6.382;2022-09-23T15:04:13;14.95;;;13.35;;
17854;SDS011;9053;53.358;6.382;2022-09-23T15:06:46;18.70;;;16.73;;
17854;SDS011;9053;53.358;6.382;2022-09-23T15:09:21;18.40;;;16.40;;
17854;SDS011;9053;53.358;6.382;2022-09-23T15:11:57;16.25;;;14.52;;
17854;SDS011;9053;53.358;6.382;2022-09-23T15:14:30;17.63;;;15.73;;
17854;SDS011;9053;53.358;6.382;2022-09-23T15:17:11;18.15;;;14.63;;
17854;SDS011;9053;53.358;6.382;2022-09-23T15:19:47;16.58;;;14.63;;
17854;SDS011;9053;53.358;6.382;2022-09-23T15:22:22;18.25;;;16.25;;
17854;SDS011;9053;53.358;6.382;2022-09-23T15:24:53;17.05;;;15.25;;
17854;SDS011;9053;53.358;6.382;2022-09-23T15:27:36;17.85;;;15.80;;
17854;SDS011;9053;53.358;6.382;2022-09-23T15:30:11;17.40;;;15.65;;
17854;SDS011;9053;53.358;6.382;2022-09-23T15:32:43;18.70;;;15.73;;
17854;SDS011;9053;53.358;6.382;2022-09-23T15:35:19;18.17;;;16.02;;
17854;SDS011;9053;53.358;6.382;2022-09-23T15:37:51;17.05;;;15.30;;
17854;SDS011;9053;53.358;6.382;2022-09-23T15:40:25;17.83;;;15.93;;
17854;SDS011;9053;53.358;6.382;2022-09-23T15:42:56;15.68;;;14.07;;
17854;SDS011;9053;53.358;6.382;2022-09-23T15:45:29;18.83;;;16.85;;
17854;SDS011;9053;53.358;6.382;2022-09-23T15:48:03;17.58;;;15.55;;
17854;SDS011;9053;53.358;6.382;2022-09-23T15:50:38;17.52;;;15.60;;
17854;SDS011;9053;53.358;6.382;2022-09-23T15:53:12;19.15;;;17.15;;
17854;SDS011;9053;53.358;6.382;2022-09-23T15:55:43;17.83;;;15.85;;